createdAt,value
2018-03-25T00:00:33.239Z,1000.22
2018-03-25T00:01:33.088Z,1000.18
2018-03-25T00:02:33.119Z,1000.18
2018-03-25T00:03:32.913Z,1000.21
2018-03-25T00:04:32.925Z,1000.11
2018-03-25T00:05:32.782Z,1000.16
2018-03-25T00:06:32.765Z,1000.15
2018-03-25T00:07:32.586Z,1000.17
2018-03-25T00:08:32.535Z,1000.11
2018-03-25T00:09:32.430Z,1000.13
2018-03-25T00:10:32.453Z,1000.14
2018-03-25T00:11:32.340Z,1000.18
2018-03-25T00:12:32.298Z,1000.10
2018-03-25T00:13:32.129Z,1000.13
2018-03-25T00:14:32.172Z,1000.12
2018-03-25T00:15:31.979Z,1000.20
2018-03-25T00:16:31.987Z,1000.11
2018-03-25T00:17:31.809Z,1000.15
2018-03-25T00:18:31.795Z,1000.15
2018-03-25T00:19:31.612Z,1000.16
2018-03-25T00:20:31.599Z,1000.14
2018-03-25T00:21:31.469Z,1000.18
2018-03-25T00:22:31.406Z,1000.20
2018-03-25T00:23:31.299Z,1000.19
2018-03-25T00:24:31.319Z,1000.12
2018-03-25T00:25:31.139Z,1000.14
2018-03-25T00:26:31.124Z,1000.12
2018-03-25T00:27:30.964Z,1000.14
2018-03-25T00:28:30.973Z,1000.14
2018-03-25T00:29:30.795Z,1000.13
2018-03-25T00:30:30.748Z,1000.18
2018-03-25T00:31:30.648Z,1000.17
2018-03-25T00:32:30.664Z,1000.12
2018-03-25T00:33:30.480Z,1000.18
2018-03-25T00:34:30.473Z,1000.14
2018-03-25T00:35:30.306Z,1000.14
2018-03-25T00:36:30.310Z,1000.15
2018-03-25T00:37:30.139Z,1000.17
2018-03-25T00:38:30.115Z,1000.15
2018-03-25T00:39:29.973Z,1000.16
2018-03-25T00:40:30.003Z,1000.09
2018-03-25T00:41:29.828Z,1000.09
2018-03-25T00:42:29.836Z,1000.13
2018-03-25T00:43:29.656Z,1000.11
2018-03-25T00:44:29.614Z,1000.08
2018-03-25T00:45:29.482Z,1000.09
2018-03-25T00:46:29.535Z,1000.11
2018-03-25T00:47:29.466Z,1000.09
2018-03-25T00:48:29.361Z,1000.12
2018-03-25T00:49:29.152Z,1000.04
2018-03-25T00:50:29.746Z,1000.10
2018-03-25T00:51:28.978Z,1000.10
2018-03-25T00:52:28.948Z,1000.04
2018-03-25T00:53:28.846Z,1000.06
2018-03-25T00:54:28.887Z,1000.08
2018-03-25T00:55:28.655Z,1000.05
2018-03-25T00:56:28.665Z,1000.09
2018-03-25T00:57:28.490Z,1000.11
2018-03-25T00:58:28.473Z,1000.06
2018-03-25T00:59:28.339Z,1000.08
2018-03-25T01:00:28.274Z,1000.08
2018-03-25T01:01:28.157Z,1000.05
2018-03-25T01:02:28.232Z,1000.05
2018-03-25T01:03:27.998Z,1000.04
2018-03-25T01:04:28.008Z,1000.08
2018-03-25T01:05:27.828Z,1000.09
2018-03-25T01:06:27.818Z,1000.12
2018-03-25T01:07:27.799Z,1000.09
2018-03-25T01:08:27.716Z,1000.08
2018-03-25T01:09:27.506Z,1000.07
2018-03-25T01:10:27.589Z,1000.06
2018-03-25T01:11:27.364Z,1000.04
2018-03-25T01:12:27.352Z,1000.07
2018-03-25T01:13:27.196Z,1000.08
2018-03-25T01:14:27.140Z,1000.06
2018-03-25T01:15:27.039Z,1000.11
2018-03-25T01:16:27.057Z,1000.09
2018-03-25T01:17:26.869Z,1000.11
2018-03-25T01:18:26.893Z,1000.13
2018-03-25T01:19:26.691Z,1000.10
2018-03-25T01:20:26.667Z,1000.03
2018-03-25T01:21:26.547Z,1000.08
2018-03-25T01:22:26.475Z,1000.07
2018-03-25T01:23:26.341Z,1000.05
2018-03-25T01:26:08.194Z,1000.07
2018-03-25T01:27:08.181Z,1000.04
2018-03-25T01:28:08.003Z,1000.04
2018-03-25T01:29:07.988Z,1000.04
2018-03-25T01:30:07.840Z,1000.06
2018-03-25T01:31:07.854Z,1000.06
2018-03-25T01:32:07.664Z,1000.07
2018-03-25T01:33:07.707Z,1000.05
2018-03-25T01:34:07.522Z,1000.08
2018-03-25T01:35:07.541Z,1000.07
2018-03-25T01:36:07.359Z,1000.10
2018-03-25T01:37:07.327Z,1000.04
2018-03-25T01:38:07.174Z,1000.07
2018-03-25T01:39:07.134Z,1000.08
2018-03-25T01:40:07.025Z,1000.07
2018-03-25T01:41:07.043Z,1000.04
2018-03-25T01:42:06.860Z,1000.03
2018-03-25T01:43:06.848Z,1000.06
2018-03-25T01:44:06.679Z,1000.06
2018-03-25T01:45:06.656Z,1000.04
2018-03-25T01:46:06.520Z,1000.03
2018-03-25T01:47:06.500Z,1000.02
2018-03-25T01:48:06.364Z,1000.07
2018-03-25T01:49:06.382Z,1000.05
2018-03-25T01:50:06.190Z,1000.07
2018-03-25T01:51:06.203Z,1000.06
2018-03-25T01:52:06.042Z,1000.05
2018-03-25T01:53:05.996Z,1000.06
2018-03-25T01:54:05.859Z,1000.03
2018-03-25T01:55:05.911Z,1000.04
2018-03-25T01:56:05.731Z,1000.05
2018-03-25T01:57:05.743Z,1000.07
2018-03-25T01:58:05.536Z,1000.07
2018-03-25T01:59:05.533Z,1000.05
2018-03-25T02:00:05.369Z,1000.08
2018-03-25T02:01:05.440Z,1000.08
2018-03-25T02:02:05.220Z,1000.07
2018-03-25T02:03:05.173Z,1000.07
2018-03-25T02:04:05.045Z,1000.06
2018-03-25T02:05:05.055Z,1000.05
2018-03-25T02:06:05.693Z,1000.04
2018-03-25T02:07:04.880Z,1000.04
2018-03-25T02:08:04.726Z,1000.05
2018-03-25T02:09:04.669Z,1000.02
2018-03-25T02:10:04.542Z,1000.06
2018-03-25T02:11:04.582Z,1000.08
2018-03-25T02:12:04.377Z,1000.07
2018-03-25T02:13:04.429Z,1000.08
2018-03-25T02:14:04.208Z,1000.12
2018-03-25T02:15:04.197Z,1000.14
2018-03-25T02:16:04.052Z,1000.14
2018-03-25T02:17:04.010Z,1000.13
2018-03-25T02:18:03.905Z,1000.18
2018-03-25T02:19:03.916Z,1000.20
2018-03-25T02:20:03.733Z,1000.19
2018-03-25T02:21:03.726Z,1000.21
2018-03-25T02:22:03.576Z,1000.22
2018-03-25T02:23:03.557Z,1000.22
2018-03-25T02:24:03.396Z,1000.23
2018-03-25T02:25:03.352Z,1000.22
2018-03-25T02:26:03.236Z,1000.22
2018-03-25T02:27:03.253Z,1000.20
2018-03-25T02:28:03.078Z,1000.18
2018-03-25T02:29:03.089Z,1000.19
2018-03-25T02:30:02.891Z,1000.15
2018-03-25T02:31:02.870Z,1000.23
2018-03-25T02:32:02.737Z,1000.25
2018-03-25T02:33:02.706Z,1000.24
2018-03-25T02:34:02.575Z,1000.29
2018-03-25T02:35:02.583Z,1000.23
2018-03-25T02:36:02.405Z,1000.25
2018-03-25T02:37:02.395Z,1000.26
2018-03-25T02:38:02.239Z,1000.27
2018-03-25T02:39:02.237Z,1000.27
2018-03-25T02:40:02.748Z,1000.26
2018-03-25T02:41:02.116Z,1000.28
2018-03-25T02:42:01.905Z,1000.27
2018-03-25T02:43:01.945Z,1000.31
2018-03-25T02:44:01.779Z,1000.30
2018-03-25T02:45:01.732Z,1000.30
2018-03-25T02:46:01.583Z,1000.31
2018-03-25T02:47:01.539Z,1000.29
2018-03-25T02:48:01.404Z,1000.30
2018-03-25T02:49:01.380Z,1000.32
2018-03-25T02:50:01.295Z,1000.33
2018-03-25T02:51:01.258Z,1000.33
2018-03-25T02:52:01.080Z,1000.32
2018-03-25T02:53:01.082Z,1000.34
2018-03-25T02:54:00.918Z,1000.33
2018-03-25T02:55:00.918Z,1000.36
2018-03-25T02:56:00.750Z,1000.37
2018-03-25T02:57:00.784Z,1000.39
2018-03-25T02:58:00.580Z,1000.41
2018-03-25T02:59:00.599Z,1000.40
2018-03-25T03:00:01.265Z,1000.42
2018-03-25T03:01:00.436Z,1000.43
2018-03-25T03:02:00.250Z,1000.42
2018-03-25T03:03:00.237Z,1000.42
2018-03-25T03:04:00.092Z,1000.43
2018-03-25T03:05:00.071Z,1000.44
2018-03-25T03:05:59.938Z,1000.44
2018-03-25T03:06:59.934Z,1000.46
2018-03-25T03:07:59.759Z,1000.42
2018-03-25T03:08:59.743Z,1000.44
2018-03-25T03:09:59.585Z,1000.38
2018-03-25T03:10:59.591Z,1000.40
2018-03-25T03:11:59.426Z,1000.37
2018-03-25T03:12:59.466Z,1000.40
2018-03-25T03:13:59.302Z,1000.41
2018-03-25T03:16:41.195Z,1000.46
2018-03-25T03:17:41.162Z,1000.46
2018-03-25T03:18:41.015Z,1000.50
2018-03-25T03:19:40.968Z,1000.50
2018-03-25T03:20:40.853Z,1000.52
2018-03-25T03:21:40.926Z,1000.53
2018-03-25T03:22:40.679Z,1000.53
2018-03-25T03:23:40.710Z,1000.56
2018-03-25T03:24:40.513Z,1000.57
2018-03-25T03:25:40.507Z,1000.57
2018-03-25T03:26:40.395Z,1000.60
2018-03-25T03:27:40.353Z,1000.63
2018-03-25T03:28:40.185Z,1000.56
2018-03-25T03:29:40.212Z,1000.59
2018-03-25T03:30:40.047Z,1000.61
2018-03-25T03:31:40.071Z,1000.62
2018-03-25T03:32:39.866Z,1000.58
2018-03-25T03:33:39.936Z,1000.57
2018-03-25T03:34:39.699Z,1000.60
2018-03-25T03:35:39.654Z,1000.63
2018-03-25T03:36:39.519Z,1000.65
2018-03-25T03:37:39.598Z,1000.69
2018-03-25T03:38:39.360Z,1000.67
2018-03-25T03:39:39.360Z,1000.69
2018-03-25T03:40:39.190Z,1000.70
2018-03-25T03:41:39.169Z,1000.73
2018-03-25T03:42:39.039Z,1000.72
2018-03-25T03:43:38.987Z,1000.76
2018-03-25T03:44:38.872Z,1000.78
2018-03-25T03:47:20.699Z,1000.82
2018-03-25T03:48:20.684Z,1000.85
2018-03-25T03:49:20.510Z,1000.85
2018-03-25T03:50:20.490Z,1000.83
2018-03-25T03:51:20.347Z,1000.88
2018-03-25T03:52:20.342Z,1000.85
2018-03-25T03:53:20.196Z,1000.85
2018-03-25T03:54:20.206Z,1000.87
2018-03-25T03:55:20.014Z,1000.89
2018-03-25T03:56:20.020Z,1000.91
2018-03-25T03:57:19.970Z,1000.93
2018-03-25T03:58:19.826Z,1000.90
2018-03-25T03:59:19.692Z,1000.90
2018-03-25T04:00:19.641Z,1000.90
2018-03-25T04:01:19.522Z,1000.90
2018-03-25T04:02:19.560Z,1000.95
2018-03-25T04:03:19.369Z,1000.90
2018-03-25T04:04:19.356Z,1000.94
2018-03-25T04:05:19.198Z,1000.91
2018-03-25T04:06:19.157Z,1000.93
2018-03-25T04:07:19.034Z,1000.96
2018-03-25T04:08:19.002Z,1000.93
2018-03-25T04:09:18.914Z,1000.95
2018-03-25T04:10:18.897Z,1000.93
2018-03-25T04:11:18.710Z,1000.95
2018-03-25T04:12:18.684Z,1000.94
2018-03-25T04:13:18.533Z,1000.98
2018-03-25T04:14:18.502Z,1000.97
2018-03-25T04:15:18.365Z,1000.98
2018-03-25T04:16:18.411Z,1000.98
2018-03-25T04:17:18.203Z,1000.98
2018-03-25T04:18:18.245Z,1000.97
2018-03-25T04:19:18.033Z,1000.99
2018-03-25T04:20:18.132Z,1001.01
2018-03-25T04:21:17.865Z,1001.02
2018-03-25T04:22:17.829Z,1001.02
2018-03-25T04:23:17.719Z,1001.03
2018-03-25T04:24:17.692Z,1001.06
2018-03-25T04:25:17.534Z,1001.05
2018-03-25T04:26:17.546Z,1000.99
2018-03-25T04:27:17.367Z,1000.99
2018-03-25T04:28:17.356Z,1000.99
2018-03-25T04:29:17.215Z,1000.98
2018-03-25T04:30:17.164Z,1001.02
2018-03-25T04:31:17.032Z,1001.02
2018-03-25T04:32:17.083Z,1000.99
2018-03-25T04:33:16.898Z,1000.98
2018-03-25T04:34:16.885Z,1001.00
2018-03-25T04:35:16.709Z,1000.98
2018-03-25T04:36:16.698Z,1000.97
2018-03-25T04:37:16.536Z,1001.00
2018-03-25T04:38:16.504Z,1001.01
2018-03-25T04:39:16.387Z,1001.02
2018-03-25T04:40:16.411Z,1000.99
2018-03-25T04:41:16.222Z,1001.02
2018-03-25T04:42:16.218Z,1001.02
2018-03-25T04:43:16.040Z,1001.00
2018-03-25T04:44:16.061Z,1001.01
2018-03-25T04:45:15.872Z,1001.04
2018-03-25T04:46:15.835Z,1001.01
2018-03-25T04:47:15.746Z,1001.02
2018-03-25T04:48:15.745Z,1001.01
2018-03-25T04:49:15.567Z,1001.00
2018-03-25T04:50:15.566Z,1001.04
2018-03-25T04:51:15.380Z,1001.04
2018-03-25T04:52:15.366Z,1001.06
2018-03-25T04:53:15.207Z,1001.07
2018-03-25T04:54:15.175Z,1001.08
2018-03-25T04:55:15.058Z,1001.08
2018-03-25T04:56:15.082Z,1001.09
2018-03-25T04:57:14.870Z,1001.11
2018-03-25T04:58:14.951Z,1001.10
2018-03-25T04:59:14.709Z,1001.12
2018-03-25T05:00:14.731Z,1001.17
2018-03-25T05:01:14.540Z,1001.15
2018-03-25T05:02:14.515Z,1001.13
2018-03-25T05:03:14.385Z,1001.13
2018-03-25T05:04:14.424Z,1001.19
2018-03-25T05:05:14.208Z,1001.14
2018-03-25T05:06:14.270Z,1001.13
2018-03-25T05:07:14.054Z,1001.19
2018-03-25T05:08:14.041Z,1001.19
2018-03-25T05:09:13.873Z,1001.18
2018-03-25T05:10:13.962Z,1001.21
2018-03-25T05:11:13.704Z,1001.22
2018-03-25T05:12:13.655Z,1001.19
2018-03-25T05:13:13.560Z,1001.25
2018-03-25T05:14:13.565Z,1001.27
2018-03-25T05:15:13.375Z,1001.22
2018-03-25T05:16:13.372Z,1001.33
2018-03-25T05:17:13.218Z,1001.26
2018-03-25T05:18:13.218Z,1001.32
2018-03-25T05:19:13.047Z,1001.27
2018-03-25T05:20:13.198Z,1001.32
2018-03-25T05:21:12.891Z,1001.31
2018-03-25T05:22:12.903Z,1001.33
2018-03-25T05:23:12.730Z,1001.34
2018-03-25T05:24:12.711Z,1001.35
2018-03-25T05:25:12.558Z,1001.38
2018-03-25T05:26:12.552Z,1001.39
2018-03-25T05:27:12.370Z,1001.37
2018-03-25T05:28:12.327Z,1001.42
2018-03-25T05:29:12.231Z,1001.41
2018-03-25T05:30:12.242Z,1001.41
2018-03-25T05:31:12.062Z,1001.44
2018-03-25T05:32:12.049Z,1001.42
2018-03-25T05:33:11.883Z,1001.44
2018-03-25T05:34:11.868Z,1001.48
2018-03-25T05:35:11.712Z,1001.47
2018-03-25T05:36:11.699Z,1001.46
2018-03-25T05:37:11.552Z,1001.51
2018-03-25T05:38:11.581Z,1001.48
2018-03-25T05:39:11.382Z,1001.43
2018-03-25T05:40:11.403Z,1001.46
2018-03-25T05:41:11.215Z,1001.50
2018-03-25T05:42:11.289Z,1001.47
2018-03-25T05:43:11.044Z,1001.56
2018-03-25T05:44:11.100Z,1001.49
2018-03-25T05:45:10.873Z,1001.50
2018-03-25T05:46:11.773Z,1001.52
2018-03-25T05:47:10.727Z,1001.53
2018-03-25T05:48:10.791Z,1001.57
2018-03-25T05:49:10.572Z,1001.54
2018-03-25T05:50:10.601Z,1001.62
2018-03-25T05:51:10.381Z,1001.57
2018-03-25T05:52:10.419Z,1001.63
2018-03-25T05:53:10.214Z,1001.65
2018-03-25T05:54:10.351Z,1001.63
2018-03-25T05:55:10.048Z,1001.67
2018-03-25T05:56:10.131Z,1001.62
2018-03-25T05:57:09.970Z,1001.65
2018-03-25T05:59:51.718Z,1001.70
2018-03-25T06:00:51.754Z,1001.67
2018-03-25T06:01:51.529Z,1001.72
2018-03-25T06:02:51.640Z,1001.75
2018-03-25T06:03:51.378Z,1001.74
2018-03-25T06:08:57.351Z,1001.74
2018-03-25T06:09:57.131Z,1001.79
2018-03-25T06:10:57.242Z,1001.76
2018-03-25T06:11:56.948Z,1001.79
2018-03-25T06:12:57.041Z,1001.80
2018-03-25T06:13:56.804Z,1001.82
2018-03-25T06:14:56.873Z,1001.84
2018-03-25T06:15:56.661Z,1001.87
2018-03-25T06:16:56.654Z,1001.85
2018-03-25T06:17:56.464Z,1001.87
2018-03-25T06:18:56.582Z,1001.87
2018-03-25T06:19:56.297Z,1001.91
2018-03-25T06:20:56.371Z,1001.91
2018-03-25T06:21:56.108Z,1001.90
2018-03-25T06:22:56.287Z,1001.91
2018-03-25T06:23:55.958Z,1001.89
2018-03-25T06:24:56.533Z,1001.91
2018-03-25T06:25:55.788Z,1001.97
2018-03-25T06:28:37.700Z,1002.04
2018-03-25T06:29:37.832Z,1001.99
2018-03-25T06:30:37.565Z,1002.03
2018-03-25T06:31:37.604Z,1002.01
2018-03-25T06:32:37.377Z,1002.03
2018-03-25T06:35:19.220Z,1002.03
2018-03-25T06:36:19.312Z,1002.02
2018-03-25T06:37:19.110Z,1002.06
2018-03-25T06:38:19.123Z,1002.08
2018-03-25T06:39:18.862Z,1002.10
2018-03-25T06:40:21.013Z,1002.16
2018-03-25T06:41:18.701Z,1002.15
2018-03-25T06:42:18.654Z,1002.17
2018-03-25T06:43:18.531Z,1002.24
2018-03-25T06:44:18.579Z,1002.27
2018-03-25T06:45:18.389Z,1002.29
2018-03-25T06:46:18.424Z,1002.23
2018-03-25T06:47:18.213Z,1002.29
2018-03-25T06:48:18.181Z,1002.29
2018-03-25T06:49:18.036Z,1002.30
2018-03-25T06:50:17.997Z,1002.34
2018-03-25T06:51:17.889Z,1002.33
2018-03-25T06:52:17.897Z,1002.39
2018-03-25T06:53:17.713Z,1002.40
2018-03-25T06:54:17.706Z,1002.42
2018-03-25T06:55:17.537Z,1002.44
2018-03-25T06:56:17.541Z,1002.49
2018-03-25T06:57:17.419Z,1002.49
2018-03-25T06:58:17.326Z,1002.54
2018-03-25T06:59:17.212Z,1002.53
2018-03-25T07:00:17.243Z,1002.57
2018-03-25T07:01:17.056Z,1002.59
2018-03-25T07:02:17.075Z,1002.62
2018-03-25T07:03:16.877Z,1002.66
2018-03-25T07:04:16.854Z,1002.68
2018-03-25T07:05:16.709Z,1002.74
2018-03-25T07:06:16.770Z,1002.72
2018-03-25T07:07:16.570Z,1002.75
2018-03-25T07:08:16.583Z,1002.72
2018-03-25T07:09:16.389Z,1002.78
2018-03-25T07:10:16.381Z,1002.81
2018-03-25T07:11:16.223Z,1002.83
2018-03-25T07:12:16.222Z,1002.86
2018-03-25T07:13:16.064Z,1002.90
2018-03-25T07:14:16.100Z,1002.92
2018-03-25T07:15:15.902Z,1002.89
2018-03-25T07:16:15.934Z,1002.92
2018-03-25T07:17:15.752Z,1002.99
2018-03-25T07:18:15.714Z,1002.99
2018-03-25T07:19:15.583Z,1002.98
2018-03-25T07:20:15.520Z,1003.00
2018-03-25T07:21:15.413Z,1003.07
2018-03-25T07:22:15.474Z,1003.09
2018-03-25T07:23:15.260Z,1003.14
2018-03-25T07:24:15.256Z,1003.14
2018-03-25T07:25:15.094Z,1003.17
2018-03-25T07:26:15.053Z,1003.16
2018-03-25T07:27:14.952Z,1003.15
2018-03-25T07:28:14.985Z,1003.17
2018-03-25T07:29:14.771Z,1003.18
2018-03-25T07:30:14.815Z,1003.21
2018-03-25T07:31:14.610Z,1003.26
2018-03-25T07:32:14.585Z,1003.24
2018-03-25T07:33:14.498Z,1003.25
2018-03-25T07:34:14.491Z,1003.26
2018-03-25T07:35:14.290Z,1003.29
2018-03-25T07:36:14.310Z,1003.35
2018-03-25T07:37:14.131Z,1003.35
2018-03-25T07:38:14.142Z,1003.39
2018-03-25T07:39:13.984Z,1003.36
2018-03-25T07:40:14.041Z,1003.38
2018-03-25T07:41:13.820Z,1003.40
2018-03-25T07:42:13.858Z,1003.45
2018-03-25T07:43:13.691Z,1003.46
2018-03-25T07:44:13.673Z,1003.45
2018-03-25T07:45:13.509Z,1003.47
2018-03-25T07:46:13.557Z,1003.46
2018-03-25T07:47:13.349Z,1003.51
2018-03-25T07:48:13.419Z,1003.47
2018-03-25T07:49:13.193Z,1003.53
2018-03-25T07:50:13.166Z,1003.50
2018-03-25T07:51:13.037Z,1003.53
2018-03-25T07:52:13.088Z,1003.54
2018-03-25T07:53:12.902Z,1003.57
2018-03-25T07:54:12.885Z,1003.59
2018-03-25T07:55:12.728Z,1003.57
2018-03-25T07:56:12.696Z,1003.57
2018-03-25T07:57:12.573Z,1003.60
2018-03-25T07:58:12.629Z,1003.64
2018-03-25T07:59:12.408Z,1003.55
2018-03-25T08:00:12.412Z,1003.61
2018-03-25T08:01:12.304Z,1003.59
2018-03-25T08:02:12.224Z,1003.59
2018-03-25T08:03:12.138Z,1003.57
2018-03-25T08:04:12.133Z,1003.61
2018-03-25T08:05:11.946Z,1003.64
2018-03-25T08:06:11.940Z,1003.66
2018-03-25T08:07:11.782Z,1003.66
2018-03-25T08:08:11.756Z,1003.66
2018-03-25T08:09:11.756Z,1003.69
2018-03-25T08:10:11.661Z,1003.71
2018-03-25T08:11:11.474Z,1003.70
2018-03-25T08:12:11.563Z,1003.73
2018-03-25T08:13:11.323Z,1003.70
2018-03-25T08:14:11.312Z,1003.74
2018-03-25T08:15:11.185Z,1003.72
2018-03-25T08:16:11.221Z,1003.74
2018-03-25T08:17:11.016Z,1003.76
2018-03-25T08:18:10.990Z,1003.78
2018-03-25T08:19:10.892Z,1003.79
2018-03-25T08:20:10.906Z,1003.77
2018-03-25T08:21:10.703Z,1003.82
2018-03-25T08:22:10.711Z,1003.83
2018-03-25T08:23:10.555Z,1003.83
2018-03-25T08:24:10.556Z,1003.83
2018-03-25T08:25:10.395Z,1003.85
2018-03-25T08:26:10.429Z,1003.85
2018-03-25T08:27:10.296Z,1003.83
2018-03-25T08:28:10.234Z,1003.84
2018-03-25T08:29:10.109Z,1003.83
2018-03-25T08:30:10.084Z,1003.82
2018-03-25T08:31:09.941Z,1003.80
2018-03-25T08:32:10.062Z,1003.81
2018-03-25T08:33:09.830Z,1003.83
2018-03-25T08:35:51.759Z,1003.77
2018-03-25T08:36:51.769Z,1003.76
2018-03-25T08:37:51.574Z,1003.72
2018-03-25T08:38:51.574Z,1003.78
2018-03-25T08:39:51.486Z,1003.78
2018-03-25T08:40:51.417Z,1003.77
2018-03-25T08:41:51.264Z,1003.73
2018-03-25T08:42:51.287Z,1003.78
2018-03-25T08:43:51.113Z,1003.81
2018-03-25T08:44:51.098Z,1003.82
2018-03-25T08:45:50.990Z,1003.84
2018-03-25T08:46:51.014Z,1003.90
2018-03-25T08:47:50.822Z,1003.88
2018-03-25T08:48:50.816Z,1003.89
2018-03-25T08:49:50.680Z,1003.90
2018-03-25T08:50:50.762Z,1003.86
2018-03-25T08:51:50.535Z,1003.85
2018-03-25T08:52:50.536Z,1003.92
2018-03-25T08:53:50.372Z,1003.89
2018-03-25T08:54:50.384Z,1003.84
2018-03-25T08:55:50.275Z,1003.85
2018-03-25T08:56:50.334Z,1003.86
2018-03-25T08:57:50.084Z,1003.87
2018-03-25T08:58:50.119Z,1003.87
2018-03-25T08:59:49.921Z,1003.90
2018-03-25T09:00:49.874Z,1003.85
2018-03-25T09:01:49.779Z,1003.87
2018-03-25T09:02:49.786Z,1003.87
2018-03-25T09:03:49.641Z,1003.87
2018-03-25T09:06:31.752Z,1003.93
2018-03-25T09:07:31.797Z,1003.94
2018-03-25T09:08:31.607Z,1003.94
2018-03-25T09:09:31.600Z,1003.95
2018-03-25T09:10:31.477Z,1004.00
2018-03-25T09:11:31.433Z,1004.00
2018-03-25T09:12:31.314Z,1004.01
2018-03-25T09:13:31.331Z,1003.99
2018-03-25T09:14:31.170Z,1004.05
2018-03-25T09:15:31.134Z,1004.01
2018-03-25T09:16:31.001Z,1004.03
2018-03-25T09:17:31.100Z,1004.05
2018-03-25T09:18:30.868Z,1004.02
2018-03-25T09:19:30.859Z,1004.03
2018-03-25T09:20:30.716Z,1004.07
2018-03-25T09:21:30.767Z,1004.08
2018-03-25T09:22:30.593Z,1004.10
2018-03-25T09:23:30.569Z,1004.18
2018-03-25T09:24:30.513Z,1004.18
2018-03-25T09:25:30.477Z,1004.19
2018-03-25T09:26:30.277Z,1004.22
2018-03-25T09:27:30.298Z,1004.25
2018-03-25T09:28:30.130Z,1004.24
2018-03-25T09:29:30.235Z,1004.27
2018-03-25T09:30:30.007Z,1004.25
2018-03-25T09:33:12.246Z,1004.30
2018-03-25T09:34:12.314Z,1004.34
2018-03-25T09:35:12.130Z,1004.31
2018-03-25T09:36:12.134Z,1004.34
2018-03-25T09:37:11.980Z,1004.37
2018-03-25T09:38:11.961Z,1004.41
2018-03-25T09:39:11.816Z,1004.49
2018-03-25T09:40:11.846Z,1004.48
2018-03-25T09:41:11.691Z,1004.52
2018-03-25T09:42:11.657Z,1004.54
2018-03-25T09:43:11.540Z,1004.55
2018-03-25T09:44:11.566Z,1004.54
2018-03-25T09:45:11.397Z,1004.57
2018-03-25T09:46:12.431Z,1004.57
2018-03-25T09:47:11.243Z,1004.60
2018-03-25T09:48:11.281Z,1004.62
2018-03-25T09:49:11.099Z,1004.63
2018-03-25T09:50:11.102Z,1004.67
2018-03-25T09:51:10.966Z,1004.67
2018-03-25T09:52:11.025Z,1004.75
2018-03-25T09:53:10.819Z,1004.75
2018-03-25T09:54:11.871Z,1004.75
2018-03-25T09:55:10.672Z,1004.75
2018-03-25T09:56:10.772Z,1004.76
2018-03-25T09:57:10.559Z,1004.75
2018-03-25T09:58:10.539Z,1004.77
2018-03-25T09:59:10.408Z,1004.80
2018-03-25T10:00:10.433Z,1004.83
2018-03-25T10:01:10.280Z,1004.87
2018-03-25T10:02:10.282Z,1004.84
2018-03-25T10:03:10.121Z,1004.85
2018-03-25T10:04:10.181Z,1004.85
2018-03-25T10:05:09.990Z,1004.91
2018-03-25T10:06:09.968Z,1004.92
2018-03-25T10:07:09.844Z,1004.93
2018-03-25T10:08:09.879Z,1004.97
2018-03-25T10:09:09.772Z,1004.94
2018-03-25T10:10:09.706Z,1004.95
2018-03-25T10:11:09.562Z,1005.02
2018-03-25T10:12:09.594Z,1005.03
2018-03-25T10:13:09.544Z,1004.99
2018-03-25T10:14:09.455Z,1005.07
2018-03-25T10:15:09.279Z,1005.06
2018-03-25T10:16:09.337Z,1005.00
2018-03-25T10:17:09.142Z,1005.04
2018-03-25T10:19:51.300Z,1005.12
2018-03-25T10:20:51.466Z,1005.16
2018-03-25T10:21:51.266Z,1005.17
2018-03-25T10:22:51.131Z,1005.08
2018-03-25T10:23:50.992Z,1005.13
2018-03-25T10:24:51.065Z,1005.26
2018-03-25T10:25:50.882Z,1005.28
2018-03-25T10:26:50.844Z,1005.28
2018-03-25T10:27:50.721Z,1005.41
2018-03-25T10:28:50.779Z,1005.41
2018-03-25T10:29:50.616Z,1005.34
2018-03-25T10:30:50.571Z,1005.47
2018-03-25T10:31:50.556Z,1005.59
2018-03-25T10:32:50.488Z,1005.56
2018-03-25T10:33:50.311Z,1005.55
2018-03-25T10:34:50.441Z,1005.61
2018-03-25T10:35:50.169Z,1005.58
2018-03-25T10:36:50.224Z,1005.56
2018-03-25T10:37:50.041Z,1005.57
2018-03-25T10:38:50.000Z,1005.58
2018-03-25T10:39:49.906Z,1005.56
2018-03-25T10:40:49.917Z,1005.54
2018-03-25T10:41:49.768Z,1005.64
2018-03-25T10:42:49.729Z,1005.65
2018-03-25T10:43:49.633Z,1005.61
2018-03-25T10:44:49.668Z,1005.64
2018-03-25T10:45:49.526Z,1005.68
2018-03-25T10:46:49.553Z,1005.65
2018-03-25T10:47:49.347Z,1005.76
2018-03-25T10:48:49.373Z,1005.81
2018-03-25T10:49:49.250Z,1005.85
2018-03-25T10:50:49.264Z,1005.93
2018-03-25T10:51:49.081Z,1006.05
2018-03-25T10:52:49.088Z,1006.10
2018-03-25T10:53:48.941Z,1006.10
2018-03-25T10:56:30.822Z,1006.70
2018-03-25T10:57:30.823Z,1006.82
2018-03-25T10:58:30.683Z,1007.01
2018-03-25T10:59:30.684Z,1007.18
2018-03-25T11:00:30.525Z,1007.37
2018-03-25T11:01:30.495Z,1007.64
2018-03-25T11:02:30.380Z,1007.78
2018-03-25T11:03:30.318Z,1008.40
2018-03-25T11:04:30.247Z,1009.35
2018-03-25T11:05:30.244Z,1009.54
2018-03-25T11:06:30.121Z,1009.55
2018-03-25T11:07:30.231Z,1009.49
2018-03-25T11:08:29.973Z,1010.16
2018-03-25T11:09:29.936Z,1010.36
2018-03-25T11:10:29.808Z,1010.05
2018-03-25T11:11:29.849Z,1009.67
2018-03-25T11:24:53.130Z,1013.10
2018-03-25T11:25:52.995Z,1012.55
2018-03-25T11:26:53.037Z,1012.34
2018-03-25T11:27:52.826Z,1012.84
2018-03-25T11:28:52.818Z,1014.29
2018-03-25T11:29:52.691Z,1014.32
2018-03-25T11:30:52.751Z,1013.64
2018-03-25T11:31:52.624Z,1014.49
2018-03-25T11:32:52.474Z,1016.46
2018-03-25T11:33:52.402Z,1015.46
2018-03-25T11:34:52.420Z,1013.05
2018-03-25T11:35:52.254Z,1013.04
2018-03-25T11:36:52.261Z,1015.38
2018-03-25T11:37:52.201Z,1015.73
2018-03-25T11:38:52.141Z,1012.36
2018-03-25T11:39:51.988Z,1011.89
2018-03-25T11:40:51.943Z,1011.31
2018-03-25T11:41:51.902Z,1010.87
2018-03-25T11:42:51.779Z,1006.42
2018-03-25T11:43:51.712Z,1005.13
2018-03-25T11:44:51.779Z,1005.07
2018-03-25T11:45:51.572Z,1006.80
2018-03-25T11:46:51.686Z,1008.80
2018-03-25T11:47:51.465Z,1008.60
2018-03-25T11:48:51.398Z,1013.45
2018-03-25T11:49:51.335Z,1015.23
2018-03-25T11:50:51.337Z,1013.78
2018-03-25T11:51:51.151Z,1012.42
2018-03-25T11:52:51.106Z,1012.65
2018-03-25T11:53:51.008Z,1013.72
2018-03-25T11:54:51.019Z,1014.03
2018-03-25T11:55:50.894Z,1013.57
2018-03-25T11:56:50.828Z,1013.50
2018-03-25T11:57:50.748Z,1013.82
2018-03-25T11:58:50.737Z,1013.68
2018-03-25T11:59:50.597Z,1012.52
2018-03-25T12:00:50.541Z,1012.01
2018-03-25T12:01:50.461Z,1012.45
2018-03-25T12:02:50.459Z,1008.75
2018-03-25T12:03:50.356Z,1004.44
2018-03-25T12:04:50.394Z,1004.36
2018-03-25T12:05:50.235Z,1004.31
2018-03-25T12:06:50.184Z,1004.38
2018-03-25T12:07:50.040Z,1004.41
2018-03-25T12:08:50.094Z,1004.43
2018-03-25T12:09:49.910Z,1004.40
2018-03-25T12:10:49.892Z,1004.33
2018-03-25T12:11:49.754Z,1004.35
2018-03-25T12:12:49.692Z,1004.34
2018-03-25T12:13:49.618Z,1004.30
2018-03-25T12:14:49.666Z,1004.18
2018-03-25T12:15:49.505Z,1004.25
2018-03-25T12:16:49.413Z,1004.29
2018-03-25T12:17:49.339Z,1004.32
2018-03-25T12:18:49.346Z,1004.30
2018-03-25T12:19:49.217Z,1004.31
2018-03-25T12:20:49.243Z,1004.31
2018-03-25T12:21:49.039Z,1004.36
2018-03-25T12:22:49.052Z,1004.29
2018-03-25T12:23:48.910Z,1004.26
2018-03-25T12:24:48.856Z,1004.26
2018-03-25T12:25:48.769Z,1004.27
2018-03-25T12:26:48.783Z,1004.26
2018-03-25T12:27:48.598Z,1004.34
2018-03-25T12:28:48.653Z,1004.27
2018-03-25T12:29:48.474Z,1004.29
2018-03-25T12:30:48.491Z,1004.32
2018-03-25T12:31:48.379Z,1004.30
2018-03-25T12:32:48.304Z,1004.28
2018-03-25T12:33:48.162Z,1004.25
2018-03-25T12:34:48.180Z,1004.18
2018-03-25T12:35:48.006Z,1004.07
2018-03-25T12:38:29.819Z,1004.19
2018-03-25T12:39:29.779Z,1004.15
2018-03-25T12:40:29.689Z,1004.10
2018-03-25T12:41:29.728Z,1004.13